createdAt,value
2017-07-28T00:01:01.383Z,71.80
2017-07-28T00:03:29.088Z,71.40
2017-07-28T00:05:57.185Z,71.30
2017-07-28T00:08:24.746Z,71.30
2017-07-28T00:10:52.306Z,71.80
2017-07-28T00:13:19.899Z,71.80
2017-07-28T00:15:47.578Z,71.80
2017-07-28T00:18:15.449Z,71.90
2017-07-28T00:20:43.014Z,72.10
2017-07-28T00:23:10.564Z,72.80
2017-07-28T00:25:38.157Z,73.20
2017-07-28T00:28:05.726Z,73.30
2017-07-28T00:30:33.588Z,74.10
2017-07-28T00:33:01.138Z,75.80
2017-07-28T00:35:28.834Z,76.40
2017-07-28T00:37:56.453Z,77.00
2017-07-28T00:40:24.026Z,78.00
2017-07-28T00:42:51.966Z,78.50
2017-07-28T00:45:19.533Z,78.20
2017-07-28T00:47:47.207Z,78.60
2017-07-28T00:50:14.805Z,78.50
2017-07-28T00:52:42.356Z,79.00
2017-07-28T00:55:10.441Z,79.10
2017-07-28T00:57:38.011Z,79.00
2017-07-28T01:00:05.564Z,79.20
2017-07-28T01:02:33.177Z,79.60
2017-07-28T01:05:00.729Z,79.70
2017-07-28T01:07:28.725Z,79.70
2017-07-28T01:09:56.369Z,79.70
2017-07-28T01:12:23.927Z,79.70
2017-07-28T01:14:51.516Z,79.70
2017-07-28T01:17:19.081Z,79.70
2017-07-28T01:19:47.054Z,79.40
2017-07-28T01:22:14.612Z,79.10
2017-07-28T01:24:42.186Z,79.20
2017-07-28T01:27:10.558Z,79.60
2017-07-28T01:29:38.105Z,78.90
2017-07-28T01:32:05.975Z,78.80
2017-07-28T01:34:33.534Z,78.90
2017-07-28T01:37:01.083Z,78.90
2017-07-28T01:39:28.674Z,79.10
2017-07-28T01:41:56.214Z,79.00
2017-07-28T01:44:24.095Z,78.80
2017-07-28T01:46:52.437Z,78.60
2017-07-28T01:49:20.005Z,78.60
2017-07-28T01:51:47.591Z,78.20
2017-07-28T01:54:15.325Z,78.20
2017-07-28T01:56:43.420Z,77.90
2017-07-28T01:59:11.856Z,77.90
2017-07-28T02:01:39.414Z,77.90
2017-07-28T02:04:07.016Z,77.10
2017-07-28T02:06:34.584Z,77.10
2017-07-28T02:09:02.537Z,76.90
2017-07-28T02:11:30.100Z,76.90
2017-07-28T02:13:57.670Z,77.10
2017-07-28T02:16:26.204Z,76.50
2017-07-28T02:18:53.749Z,76.80
2017-07-28T02:21:21.650Z,76.70
2017-07-28T02:23:49.196Z,76.00
2017-07-28T02:26:16.731Z,75.50
2017-07-28T02:28:44.303Z,75.50
2017-07-28T02:31:11.870Z,75.50
2017-07-28T02:33:39.719Z,75.50
2017-07-28T02:36:07.269Z,75.50
2017-07-28T02:38:34.841Z,75.60
2017-07-28T02:41:02.556Z,75.60
2017-07-28T02:43:30.110Z,75.60
2017-07-28T02:45:58.080Z,75.60
2017-07-28T02:48:25.644Z,75.60
2017-07-28T02:50:53.201Z,75.60
2017-07-28T02:53:20.811Z,75.60
2017-07-28T02:55:48.457Z,75.50
2017-07-28T02:58:16.389Z,75.50
2017-07-28T03:00:43.959Z,76.10
2017-07-28T03:03:11.514Z,75.80
2017-07-28T03:05:39.138Z,76.10
2017-07-28T03:08:06.909Z,76.10
2017-07-28T03:10:34.886Z,76.20
2017-07-28T03:13:02.435Z,76.50
2017-07-28T03:15:30.002Z,76.40
2017-07-28T03:17:57.611Z,76.70
2017-07-28T03:20:25.175Z,76.50
2017-07-28T03:22:54.047Z,76.90
2017-07-28T03:25:22.377Z,77.00
2017-07-28T03:27:49.946Z,76.50
2017-07-28T03:30:17.569Z,76.80
2017-07-28T03:32:45.125Z,77.00
2017-07-28T03:35:13.171Z,76.80
2017-07-28T03:37:41.496Z,77.30
2017-07-28T03:40:09.045Z,77.20
2017-07-28T03:42:36.632Z,76.90
2017-07-28T03:45:04.344Z,76.70
2017-07-28T03:47:32.457Z,76.80
2017-07-28T03:50:00.016Z,76.70
2017-07-28T03:52:27.721Z,76.70
2017-07-28T03:54:55.316Z,76.90
2017-07-28T03:57:22.869Z,77.00
2017-07-28T03:59:50.879Z,77.30
2017-07-28T04:02:18.444Z,77.00
2017-07-28T04:04:46.000Z,77.00
2017-07-28T04:07:13.583Z,76.80
2017-07-28T04:09:41.178Z,76.70
2017-07-28T04:12:09.120Z,76.60
2017-07-28T04:14:36.665Z,76.80
2017-07-28T04:17:04.222Z,76.60
2017-07-28T04:19:31.803Z,75.90
2017-07-28T04:21:59.597Z,75.90
2017-07-28T04:24:27.641Z,75.90
2017-07-28T04:26:55.985Z,75.90
2017-07-28T04:29:23.566Z,75.90
2017-07-28T04:31:51.158Z,75.40
2017-07-28T04:34:18.707Z,74.70
2017-07-28T04:36:47.444Z,74.60
2017-07-28T04:39:14.998Z,74.60
2017-07-28T04:41:42.557Z,74.10
2017-07-28T04:44:10.365Z,74.00
2017-07-28T04:46:38.684Z,74.70
2017-07-28T04:49:06.706Z,74.20
2017-07-28T04:51:34.273Z,74.50
2017-07-28T04:54:01.852Z,74.20
2017-07-28T04:56:30.214Z,74.40
2017-07-28T04:58:57.768Z,74.40
2017-07-28T05:01:26.174Z,74.50
2017-07-28T05:03:53.731Z,74.60
2017-07-28T05:06:22.044Z,74.80
2017-07-28T05:08:49.841Z,74.70
2017-07-28T05:11:17.392Z,74.60
2017-07-28T05:13:45.351Z,73.90
2017-07-28T05:16:12.978Z,73.60
2017-07-28T05:18:40.522Z,73.60
2017-07-28T05:21:08.171Z,73.20
2017-07-28T05:23:36.475Z,72.70
2017-07-28T05:26:04.497Z,72.60
2017-07-28T05:28:32.049Z,72.30
2017-07-28T05:30:59.600Z,71.60
2017-07-28T05:33:27.197Z,70.90
2017-07-28T05:35:54.797Z,69.40
2017-07-28T05:38:22.639Z,65.40
2017-07-28T05:40:50.184Z,61.80
2017-07-28T05:43:17.728Z,57.80
2017-07-28T05:45:45.325Z,54.90
2017-07-28T05:48:12.891Z,54.20
2017-07-28T05:50:40.762Z,55.10
2017-07-28T05:53:08.317Z,55.10
2017-07-28T05:55:35.873Z,55.90
2017-07-28T05:58:03.479Z,57.40
2017-07-28T06:00:31.053Z,57.30
2017-07-28T06:02:59.004Z,58.80
2017-07-28T06:05:26.562Z,59.20
2017-07-28T06:07:54.161Z,60.60
2017-07-28T06:10:22.580Z,60.20
2017-07-28T06:12:50.237Z,60.20
2017-07-28T06:15:18.345Z,60.30
2017-07-28T06:17:45.899Z,61.10
2017-07-28T06:20:13.472Z,61.60
2017-07-28T06:22:41.066Z,61.40
2017-07-28T06:25:08.636Z,61.40
2017-07-28T06:27:36.521Z,61.30
2017-07-28T06:30:04.076Z,61.40
2017-07-28T06:32:31.643Z,62.00
2017-07-28T06:34:59.217Z,60.20
2017-07-28T06:37:26.904Z,59.20
2017-07-28T06:39:54.998Z,58.70
2017-07-28T06:42:23.310Z,50.30
2017-07-28T06:44:50.861Z,50.20
2017-07-28T06:47:18.469Z,47.50
2017-07-28T06:49:46.033Z,44.30
2017-07-28T06:52:14.097Z,43.40
2017-07-28T06:54:41.650Z,40.40
2017-07-28T06:57:09.201Z,39.40
2017-07-28T06:59:36.784Z,37.60
2017-07-28T07:02:04.342Z,37.90
2017-07-28T07:04:32.193Z,33.90
2017-07-28T07:06:59.749Z,37.50
2017-07-28T07:09:27.339Z,37.60
2017-07-28T07:11:55.736Z,38.90
2017-07-28T07:14:23.306Z,38.80
2017-07-28T07:16:51.323Z,40.80
2017-07-28T07:19:18.893Z,40.60
2017-07-28T07:21:46.608Z,40.90
2017-07-28T07:24:14.231Z,39.00
2017-07-28T07:26:41.784Z,37.20
2017-07-28T07:29:10.621Z,38.10
2017-07-28T07:31:39.000Z,36.40
2017-07-28T07:34:06.533Z,36.10
2017-07-28T07:36:34.132Z,36.40
2017-07-28T07:39:01.672Z,34.50
2017-07-28T07:41:29.593Z,34.80
2017-07-28T07:43:57.139Z,36.60
2017-07-28T07:46:24.710Z,34.10
2017-07-28T07:48:52.312Z,37.40
2017-07-28T07:51:19.868Z,36.50
2017-07-28T07:53:47.747Z,37.90
2017-07-28T07:56:15.310Z,34.90
2017-07-28T07:58:42.851Z,35.00
2017-07-28T08:01:10.450Z,35.80
2017-07-28T08:03:37.982Z,35.30
2017-07-28T08:06:05.982Z,33.70
2017-07-28T08:08:33.540Z,33.70
2017-07-28T08:11:01.098Z,33.60
2017-07-28T08:13:28.717Z,38.00
2017-07-28T08:15:56.277Z,37.00
2017-07-28T08:18:24.305Z,39.30
2017-07-28T08:20:51.843Z,40.10
2017-07-28T08:23:19.396Z,41.90
2017-07-28T08:25:47.126Z,44.50
2017-07-28T08:28:14.812Z,45.40
2017-07-28T08:30:42.836Z,46.50
2017-07-28T08:33:11.170Z,47.00
2017-07-28T08:35:38.980Z,47.00
2017-07-28T08:38:07.346Z,48.10
2017-07-28T08:40:34.919Z,48.00
2017-07-28T08:43:03.588Z,50.00
2017-07-28T08:45:31.149Z,49.90
2017-07-28T08:47:58.698Z,49.90
2017-07-28T08:50:26.306Z,49.80
2017-07-28T08:52:53.881Z,49.80
2017-07-28T08:55:22.044Z,49.60
2017-07-28T08:57:49.621Z,49.60
2017-07-28T09:00:17.195Z,49.40
2017-07-28T09:02:44.851Z,49.30
2017-07-28T09:05:12.429Z,49.10
2017-07-28T09:07:40.398Z,48.40
2017-07-28T09:10:07.969Z,48.80
2017-07-28T09:12:35.542Z,48.90
2017-07-28T09:15:03.982Z,49.70
2017-07-28T09:17:31.549Z,49.60
2017-07-28T09:19:59.400Z,49.00
2017-07-28T09:22:26.955Z,49.10
2017-07-28T09:24:54.669Z,51.40
2017-07-28T09:27:23.096Z,48.70
2017-07-28T09:29:50.644Z,49.00
2017-07-28T09:32:18.489Z,49.40
2017-07-28T09:34:46.828Z,48.80
2017-07-28T09:37:14.385Z,48.80
2017-07-28T09:39:41.980Z,49.00
2017-07-28T09:42:09.550Z,49.10
2017-07-28T09:44:37.585Z,49.20
2017-07-28T09:47:05.151Z,49.30
2017-07-28T09:49:32.725Z,47.50
2017-07-28T09:52:01.080Z,47.90
2017-07-28T09:54:28.815Z,47.90
2017-07-28T09:56:56.881Z,47.60
2017-07-28T09:59:24.438Z,46.30
2017-07-28T10:01:51.988Z,47.30
2017-07-28T10:04:19.603Z,46.30
2017-07-28T10:06:47.170Z,45.80
2017-07-28T10:09:16.054Z,47.30
2017-07-28T10:11:43.726Z,46.30
2017-07-28T10:14:12.223Z,45.10
2017-07-28T10:16:40.661Z,46.10
2017-07-28T10:23:36.500Z,45.70
2017-07-28T10:26:04.082Z,46.10
2017-07-28T10:28:31.949Z,45.90
2017-07-28T10:30:59.643Z,46.10
2017-07-28T10:33:27.238Z,46.90
2017-07-28T10:35:54.836Z,47.50
2017-07-28T10:38:22.557Z,46.80
2017-07-28T10:40:50.467Z,46.90
2017-07-28T10:43:18.056Z,45.80
2017-07-28T10:45:45.636Z,46.10
2017-07-28T10:48:13.231Z,45.70
2017-07-28T10:50:40.787Z,46.10
2017-07-28T10:53:08.797Z,45.70
2017-07-28T10:55:36.597Z,46.30
2017-07-28T10:58:04.279Z,46.00
2017-07-28T11:00:31.870Z,46.00
2017-07-28T11:02:59.414Z,46.60
2017-07-28T11:05:27.276Z,46.00
2017-07-28T11:07:54.838Z,46.10
2017-07-28T11:10:22.405Z,46.00
2017-07-28T11:12:50.009Z,45.90
2017-07-28T11:15:17.570Z,43.50
2017-07-28T11:17:45.600Z,44.90
2017-07-28T11:20:13.153Z,45.30
2017-07-28T11:22:40.723Z,44.80
2017-07-28T11:25:09.112Z,44.60
2017-07-28T11:27:37.637Z,43.80
2017-07-28T11:30:05.550Z,43.80
2017-07-28T11:32:33.112Z,44.80
2017-07-28T11:35:00.668Z,44.40
2017-07-28T11:37:29.048Z,44.60
2017-07-28T11:39:56.764Z,43.60
2017-07-28T11:42:24.685Z,43.10
2017-07-28T11:44:52.242Z,43.60
2017-07-28T11:47:19.803Z,43.90
2017-07-28T11:49:48.273Z,45.40
2017-07-28T11:52:15.838Z,44.40
2017-07-28T11:54:43.683Z,42.90
2017-07-28T11:57:11.245Z,44.10
2017-07-28T11:59:38.800Z,44.10
2017-07-28T12:02:06.421Z,45.20
2017-07-28T12:04:33.973Z,45.90
2017-07-28T12:07:01.853Z,46.40
2017-07-28T12:09:29.426Z,46.40
2017-07-28T12:11:57.003Z,46.60
2017-07-28T12:14:24.624Z,47.00
2017-07-28T12:16:52.199Z,47.00
2017-07-28T12:19:20.082Z,46.60
2017-07-28T12:21:47.668Z,46.70
2017-07-28T12:24:15.231Z,46.80
2017-07-28T12:26:42.854Z,46.90
2017-07-28T12:29:10.422Z,47.20
2017-07-28T12:31:38.297Z,47.40
2017-07-28T12:34:05.849Z,47.90
2017-07-28T12:36:33.417Z,47.70
2017-07-28T12:39:01.023Z,47.50
2017-07-28T12:41:29.361Z,47.90
2017-07-28T12:43:57.237Z,47.80
2017-07-28T12:46:24.831Z,47.30
2017-07-28T12:48:53.247Z,47.70
2017-07-28T12:51:21.667Z,47.70
2017-07-28T12:53:49.229Z,47.70
2017-07-28T12:56:17.173Z,47.40
2017-07-28T12:58:44.749Z,48.10
2017-07-28T13:01:12.314Z,48.90
2017-07-28T13:03:39.924Z,48.10
2017-07-28T13:06:07.478Z,48.90
2017-07-28T13:08:35.394Z,49.20
2017-07-28T13:11:03.019Z,48.10
2017-07-28T13:13:30.589Z,46.50
2017-07-28T13:15:58.226Z,47.00
2017-07-28T13:18:25.788Z,46.00
2017-07-28T13:20:53.706Z,44.20
2017-07-28T13:23:21.260Z,42.60
2017-07-28T13:25:48.837Z,41.50
2017-07-28T13:28:17.229Z,38.10
2017-07-28T13:30:44.827Z,38.00
2017-07-28T13:33:12.682Z,40.30
2017-07-28T13:35:40.276Z,41.20
2017-07-28T13:38:07.852Z,41.70
2017-07-28T13:40:35.447Z,40.60
2017-07-28T13:43:03.013Z,41.10
2017-07-28T13:45:30.937Z,41.60
2017-07-28T13:47:58.519Z,40.00
2017-07-28T13:50:26.096Z,38.30
2017-07-28T13:52:53.712Z,39.60
2017-07-28T13:55:21.282Z,36.90
2017-07-28T13:57:49.237Z,36.50
2017-07-28T14:00:16.807Z,34.40
2017-07-28T14:02:44.410Z,32.10
2017-07-28T14:05:12.003Z,31.60
2017-07-28T14:07:39.615Z,31.00
2017-07-28T14:10:07.589Z,30.00
2017-07-28T14:12:35.192Z,29.70
2017-07-28T14:15:02.752Z,28.80
2017-07-28T14:17:30.339Z,28.70
2017-07-28T14:19:57.900Z,27.50
2017-07-28T14:22:25.800Z,29.50
2017-07-28T14:24:53.359Z,32.00
2017-07-28T14:27:20.948Z,30.00
2017-07-28T14:29:48.542Z,28.10
2017-07-28T14:32:16.108Z,28.50
2017-07-28T14:34:44.190Z,27.30
2017-07-28T14:37:12.516Z,28.20
2017-07-28T14:39:40.158Z,28.10
2017-07-28T14:42:07.758Z,27.00
2017-07-28T14:44:35.320Z,27.40
2017-07-28T14:47:03.292Z,26.00
2017-07-28T14:49:30.859Z,25.60
2017-07-28T14:51:58.442Z,25.60
2017-07-28T14:54:26.813Z,23.60
2017-07-28T14:56:54.369Z,23.60
2017-07-28T14:59:23.050Z,21.90
2017-07-28T15:01:51.080Z,21.80
2017-07-28T15:04:18.662Z,19.60
2017-07-28T15:06:46.253Z,19.90
2017-07-28T15:09:14.579Z,20.40
2017-07-28T15:11:42.429Z,20.40
2017-07-28T15:14:09.991Z,20.50
2017-07-28T15:16:37.557Z,16.80
2017-07-28T15:19:05.176Z,18.00
2017-07-28T15:21:32.860Z,16.00
2017-07-28T15:24:00.709Z,17.50
2017-07-28T15:26:28.316Z,18.10
2017-07-28T15:28:55.870Z,17.80
2017-07-28T15:31:23.504Z,18.30
2017-07-28T15:33:51.818Z,18.20
2017-07-28T15:36:20.655Z,18.20
2017-07-28T15:38:48.986Z,20.30
2017-07-28T15:41:16.556Z,20.30
2017-07-28T15:43:44.167Z,21.00
2017-07-28T15:46:11.722Z,20.90
2017-07-28T15:48:39.747Z,21.30
2017-07-28T15:51:07.311Z,21.80
2017-07-28T15:53:34.872Z,21.90
2017-07-28T15:56:02.574Z,22.10
2017-07-28T15:58:30.142Z,21.40
2017-07-28T16:00:58.062Z,23.00
2017-07-28T16:03:25.607Z,22.10
2017-07-28T16:05:53.170Z,21.30
2017-07-28T16:08:21.635Z,23.10
2017-07-28T16:10:49.190Z,22.70
2017-07-28T16:13:17.206Z,25.20
2017-07-28T16:15:44.773Z,26.70
2017-07-28T16:18:12.327Z,28.80
2017-07-28T16:20:39.932Z,29.60
2017-07-28T16:23:07.494Z,30.50
2017-07-28T16:25:35.522Z,30.90
2017-07-28T16:28:03.838Z,32.70
2017-07-28T16:30:31.426Z,32.80
2017-07-28T16:32:59.054Z,33.70
2017-07-28T16:35:26.624Z,34.00
2017-07-28T16:37:54.816Z,35.00
2017-07-28T16:40:22.413Z,34.90
2017-07-28T16:42:49.987Z,34.90
2017-07-28T16:45:18.354Z,36.40
2017-07-28T16:47:45.932Z,36.40
2017-07-28T16:50:14.752Z,36.90
2017-07-28T16:52:42.313Z,36.80
2017-07-28T16:55:09.885Z,37.30
2017-07-28T16:57:37.561Z,36.50
2017-07-28T17:00:05.124Z,37.40
2017-07-28T17:02:33.124Z,37.10
2017-07-28T17:05:01.466Z,36.80
2017-07-28T17:07:29.047Z,36.80
2017-07-28T17:09:56.649Z,36.70
2017-07-28T17:12:24.247Z,37.90
2017-07-28T17:14:52.247Z,37.80
2017-07-28T17:17:20.695Z,38.60
2017-07-28T17:19:48.257Z,38.50
2017-07-28T17:22:15.890Z,38.90
2017-07-28T17:24:43.455Z,38.80
2017-07-28T17:27:11.377Z,39.40
2017-07-28T17:29:39.705Z,39.30
2017-07-28T17:32:07.262Z,39.30
2017-07-28T17:34:34.874Z,39.80
2017-07-28T17:37:02.457Z,39.60
2017-07-28T17:39:30.346Z,40.20
2017-07-28T17:41:57.922Z,40.00
2017-07-28T17:44:25.477Z,39.80
2017-07-28T17:46:53.070Z,39.40
2017-07-28T17:49:20.625Z,40.00
2017-07-28T17:51:48.604Z,39.90
2017-07-28T17:54:16.151Z,39.90
2017-07-28T17:56:43.727Z,39.80
2017-07-28T17:59:12.144Z,40.80
2017-07-28T18:01:39.713Z,41.00
2017-07-28T18:04:07.711Z,40.60
2017-07-28T18:06:35.271Z,41.10
2017-07-28T18:09:02.835Z,41.10
2017-07-28T18:11:30.459Z,41.50
2017-07-28T18:13:58.008Z,41.40
2017-07-28T18:16:26.035Z,41.50
2017-07-28T18:18:53.591Z,42.20
2017-07-28T18:21:21.162Z,42.50
2017-07-28T18:23:49.779Z,43.60
2017-07-28T18:26:17.335Z,42.60
2017-07-28T18:28:45.381Z,42.90
2017-07-28T18:31:13.712Z,44.70
2017-07-28T18:33:41.282Z,43.70
2017-07-28T18:36:08.909Z,44.00
2017-07-28T18:38:36.465Z,44.40
2017-07-28T18:41:04.493Z,44.20
2017-07-28T18:43:32.844Z,45.40
2017-07-28T18:46:00.426Z,45.40
2017-07-28T18:48:28.026Z,45.50
2017-07-28T18:50:55.632Z,45.50
2017-07-28T18:53:23.633Z,45.40
2017-07-28T18:55:51.194Z,45.80
2017-07-28T18:58:18.762Z,46.40
2017-07-28T19:00:47.149Z,46.60
2017-07-28T19:03:14.723Z,46.50
2017-07-28T19:05:42.597Z,47.20
2017-07-28T19:08:10.233Z,47.40
2017-07-28T19:10:38.614Z,47.50
2017-07-28T19:13:06.223Z,47.50
2017-07-28T19:15:33.809Z,47.90
2017-07-28T19:18:01.889Z,48.20
2017-07-28T19:20:30.232Z,49.00
2017-07-28T19:22:57.897Z,49.00
2017-07-28T19:25:25.494Z,48.70
2017-07-28T19:27:53.822Z,49.40
2017-07-28T19:30:21.709Z,48.60
2017-07-28T19:32:49.555Z,48.40
2017-07-28T19:35:17.139Z,48.90
2017-07-28T19:37:44.750Z,49.20
2017-07-28T19:40:12.311Z,49.00
2017-07-28T19:42:40.353Z,49.40
2017-07-28T19:45:08.681Z,49.40
2017-07-28T19:47:36.267Z,49.40
2017-07-28T19:50:03.894Z,49.80
2017-07-28T19:52:31.459Z,49.60
2017-07-28T19:54:59.462Z,49.80
2017-07-28T19:57:27.911Z,50.20
2017-07-28T19:59:55.496Z,50.70
2017-07-28T20:02:23.095Z,50.50
2017-07-28T20:04:51.429Z,50.50
2017-07-28T20:07:20.729Z,50.40
2017-07-28T20:09:49.120Z,50.80
2017-07-28T20:12:16.695Z,50.90
2017-07-28T20:14:44.309Z,50.70
2017-07-28T20:17:11.887Z,50.60
2017-07-28T20:19:39.976Z,50.60
2017-07-28T20:22:07.552Z,50.70
2017-07-28T20:24:35.112Z,51.20
2017-07-28T20:27:03.740Z,51.70
2017-07-28T20:29:31.320Z,51.60
2017-07-28T20:31:59.299Z,51.40
2017-07-28T20:34:26.867Z,51.70
2017-07-28T20:36:54.423Z,52.10
2017-07-28T20:39:22.059Z,53.00
2017-07-28T20:41:49.627Z,52.40
2017-07-28T20:44:17.503Z,52.80
2017-07-28T20:46:45.084Z,52.90
2017-07-28T20:49:12.655Z,53.20
2017-07-28T20:51:40.319Z,53.10
2017-07-28T20:54:07.874Z,53.40
2017-07-28T20:56:36.153Z,53.30
2017-07-28T20:59:04.705Z,55.20
2017-07-28T21:01:32.273Z,54.10
2017-07-28T21:03:59.930Z,54.20
2017-07-28T21:06:27.498Z,54.60
2017-07-28T21:08:55.382Z,54.40
2017-07-28T21:11:22.962Z,54.90
2017-07-28T21:14:02.707Z,55.30
2017-07-28T21:16:30.276Z,55.20
2017-07-28T21:18:57.830Z,55.30
2017-07-28T21:21:25.477Z,55.50
2017-07-28T21:23:53.797Z,56.20
2017-07-28T21:26:21.670Z,56.10
2017-07-28T21:28:49.358Z,56.60
2017-07-28T21:31:17.009Z,56.60
2017-07-28T21:33:44.711Z,56.60
2017-07-28T21:36:12.296Z,56.60
2017-07-28T21:38:40.346Z,56.60
2017-07-28T21:41:08.694Z,56.80
2017-07-28T21:43:36.621Z,56.60
2017-07-28T21:46:04.276Z,56.80
2017-07-28T21:48:31.891Z,56.90
2017-07-28T21:50:59.857Z,56.30
2017-07-28T21:53:27.419Z,55.50
2017-07-28T21:55:54.997Z,55.30
2017-07-28T21:58:23.353Z,55.30
2017-07-28T22:00:50.935Z,55.30
2017-07-28T22:03:19.566Z,54.90
2017-07-28T22:05:47.137Z,54.90
2017-07-28T22:08:14.706Z,56.20
2017-07-28T22:10:43.241Z,55.30
2017-07-28T22:13:10.824Z,55.40
2017-07-28T22:15:38.759Z,55.40
2017-07-28T22:18:06.312Z,55.70
2017-07-28T22:20:33.884Z,56.00
2017-07-28T22:23:01.693Z,56.10
2017-07-28T22:25:29.238Z,56.50
2017-07-28T22:27:57.233Z,56.50
2017-07-28T22:30:24.944Z,57.20
2017-07-28T22:32:52.481Z,57.20
2017-07-28T22:35:20.065Z,57.20
2017-07-28T22:37:47.623Z,57.20
2017-07-28T22:40:15.545Z,57.20
2017-07-28T22:42:43.115Z,57.20
2017-07-28T22:45:10.667Z,57.20
2017-07-28T22:47:38.497Z,57.00
2017-07-28T22:50:06.044Z,57.00
2017-07-28T22:52:33.896Z,57.00
2017-07-28T22:55:01.461Z,57.00
2017-07-28T22:57:29.085Z,57.00
2017-07-28T22:59:56.671Z,56.90
2017-07-28T23:02:24.411Z,56.90
2017-07-28T23:04:52.319Z,57.00
2017-07-28T23:07:19.873Z,56.90
2017-07-28T23:09:47.421Z,56.90
2017-07-28T23:12:15.009Z,56.90
2017-07-28T23:14:42.555Z,57.10
2017-07-28T23:17:10.421Z,57.10
2017-07-28T23:19:37.978Z,56.90
2017-07-28T23:22:05.540Z,56.90
2017-07-28T23:24:33.194Z,57.30
2017-07-28T23:27:00.750Z,57.70
2017-07-28T23:29:28.727Z,57.80
2017-07-28T23:31:56.284Z,58.10
2017-07-28T23:34:23.845Z,58.30
2017-07-28T23:36:51.475Z,58.30
2017-07-28T23:39:19.042Z,58.80
2017-07-28T23:41:47.040Z,59.00
2017-07-28T23:44:16.228Z,58.90
2017-07-28T23:46:43.802Z,58.90
2017-07-28T23:49:11.421Z,59.00
2017-07-28T23:51:39.744Z,59.10
2017-07-28T23:54:08.418Z,60.20
2017-07-28T23:56:36.001Z,59.40
2017-07-28T23:59:03.561Z,58.90
